createdAt,value
2023-08-19T00:03:08.420Z,17.28
2023-08-19T00:07:21.472Z,17.23
2023-08-19T00:11:34.448Z,17.20
2023-08-19T00:15:47.419Z,17.05
2023-08-19T00:19:59.955Z,17.33
2023-08-19T00:24:12.566Z,17.10
2023-08-19T00:28:25.038Z,16.92
2023-08-19T00:32:37.556Z,16.83
2023-08-19T00:36:50.678Z,16.81
2023-08-19T00:41:05.088Z,16.82
2023-08-19T00:45:17.568Z,16.85
2023-08-19T00:49:33.678Z,16.74
2023-08-19T00:53:47.131Z,16.60
2023-08-19T00:58:03.280Z,16.56
2023-08-19T01:02:15.981Z,16.48
2023-08-19T01:06:47.417Z,16.43
2023-08-19T01:11:10.422Z,16.40
2023-08-19T01:15:28.194Z,16.37
2023-08-19T01:19:43.636Z,16.49
2023-08-19T01:24:00.703Z,16.39
2023-08-19T01:28:13.283Z,16.31
2023-08-19T01:32:26.981Z,16.31
2023-08-19T01:36:46.798Z,16.17
2023-08-19T01:41:00.179Z,16.08
2023-08-19T01:45:13.552Z,16.05
2023-08-19T01:49:28.623Z,16.10
2023-08-19T01:53:41.403Z,16.01
2023-08-19T01:57:54.367Z,15.94
2023-08-19T02:02:06.877Z,15.97
2023-08-19T02:06:19.787Z,15.92
2023-08-19T02:10:34.627Z,15.78
2023-08-19T02:14:47.370Z,15.92
2023-08-19T02:19:01.370Z,15.92
2023-08-19T02:23:13.857Z,15.81
2023-08-19T02:27:27.724Z,15.76
2023-08-19T02:31:40.859Z,15.75
2023-08-19T02:35:53.861Z,15.67
2023-08-19T02:40:08.178Z,15.61
2023-08-19T02:44:20.710Z,15.67
2023-08-19T02:48:33.448Z,15.92
2023-08-19T02:52:45.964Z,15.66
2023-08-19T02:56:58.477Z,15.51
2023-08-19T03:01:14.366Z,15.82
2023-08-19T03:05:26.961Z,15.76
2023-08-19T03:09:39.482Z,15.74
2023-08-19T03:13:52.069Z,15.53
2023-08-19T03:18:04.988Z,15.38
2023-08-19T03:22:17.473Z,15.26
2023-08-19T03:26:30.392Z,15.27
2023-08-19T03:30:42.853Z,15.29
2023-08-19T03:34:55.407Z,15.26
2023-08-19T03:39:08.338Z,15.20
2023-08-19T03:43:20.894Z,15.12
2023-08-19T03:47:33.759Z,15.14
2023-08-19T03:51:46.994Z,15.14
2023-08-19T03:55:59.525Z,15.09
2023-08-19T04:00:13.029Z,15.06
2023-08-19T04:04:26.163Z,15.00
2023-08-19T04:08:38.784Z,15.01
2023-08-19T04:12:51.277Z,14.94
2023-08-19T04:17:03.976Z,14.95
2023-08-19T04:21:16.479Z,14.97
2023-08-19T04:25:28.965Z,15.07
2023-08-19T04:29:41.482Z,15.34
2023-08-19T04:33:54.003Z,15.27
2023-08-19T04:38:06.542Z,15.11
2023-08-19T04:42:19.634Z,15.26
2023-08-19T04:46:33.031Z,15.28
2023-08-19T04:50:45.925Z,15.33
2023-08-19T04:54:58.416Z,15.43
2023-08-19T04:59:10.907Z,15.47
2023-08-19T05:03:23.514Z,15.55
2023-08-19T05:07:36.003Z,15.72
2023-08-19T05:11:48.595Z,15.82
2023-08-19T05:16:01.893Z,16.01
2023-08-19T05:20:14.881Z,16.14
2023-08-19T05:24:27.369Z,16.28
2023-08-19T05:28:40.431Z,16.41
2023-08-19T05:32:52.935Z,16.58
2023-08-19T05:37:08.578Z,16.80
2023-08-19T05:41:21.137Z,16.90
2023-08-19T05:45:35.626Z,17.08
2023-08-19T05:49:48.229Z,17.40
2023-08-19T05:54:02.210Z,17.55
2023-08-19T05:58:14.725Z,17.71
2023-08-19T06:02:27.594Z,18.06
2023-08-19T06:06:40.137Z,18.16
2023-08-19T06:11:08.859Z,18.30
2023-08-19T06:15:21.433Z,18.47
2023-08-19T06:19:33.916Z,18.83
2023-08-19T06:23:46.402Z,18.96
2023-08-19T06:27:59.191Z,19.09
2023-08-19T06:32:13.080Z,19.33
2023-08-19T06:36:30.392Z,19.56
2023-08-19T06:41:12.133Z,19.72
2023-08-19T06:45:25.262Z,19.95
2023-08-19T06:49:39.458Z,20.17
2023-08-19T06:53:52.641Z,20.34
2023-08-19T06:58:10.339Z,20.51
2023-08-19T07:02:24.013Z,20.79
2023-08-19T07:06:38.973Z,20.94
2023-08-19T07:10:51.895Z,21.24
2023-08-19T07:15:07.002Z,21.47
2023-08-19T07:19:28.994Z,21.60
2023-08-19T07:23:48.918Z,21.92
2023-08-19T07:28:06.735Z,21.94
2023-08-19T07:32:21.241Z,22.29
2023-08-19T07:36:33.752Z,22.53
2023-08-19T07:40:46.296Z,22.69
2023-08-19T07:44:58.786Z,23.01
2023-08-19T07:49:11.291Z,23.11
2023-08-19T07:53:24.116Z,23.42
2023-08-19T07:57:36.625Z,23.80
2023-08-19T08:01:49.195Z,23.98
2023-08-19T08:06:01.831Z,24.09
2023-08-19T08:10:14.379Z,24.48
2023-08-19T08:14:26.921Z,24.92
2023-08-19T08:18:39.960Z,25.13
2023-08-19T08:22:52.459Z,25.68
2023-08-19T08:27:05.095Z,26.28
2023-08-19T08:31:18.341Z,27.36
2023-08-19T08:35:30.898Z,27.60
2023-08-19T08:39:44.081Z,28.34
2023-08-19T08:43:57.942Z,28.63
2023-08-19T08:48:15.960Z,29.11
2023-08-19T08:52:29.617Z,29.14
2023-08-19T08:56:42.773Z,29.84
2023-08-19T09:00:56.829Z,29.39
2023-08-19T09:05:10.769Z,30.24
2023-08-19T09:09:27.443Z,29.68
2023-08-19T09:13:42.698Z,29.94
2023-08-19T09:17:57.537Z,30.84
2023-08-19T09:22:19.493Z,29.82
2023-08-19T09:26:32.615Z,31.08
2023-08-19T09:30:46.093Z,31.42
2023-08-19T09:35:08.174Z,31.42
2023-08-19T09:39:22.328Z,31.21
2023-08-19T09:43:41.820Z,31.41
2023-08-19T09:47:56.216Z,31.69
2023-08-19T09:52:21.457Z,32.77
2023-08-19T09:56:34.973Z,32.04
2023-08-19T10:00:48.839Z,33.12
2023-08-19T10:05:02.681Z,32.38
2023-08-19T10:09:21.852Z,33.36
2023-08-19T10:13:36.316Z,33.59
2023-08-19T10:17:55.108Z,33.77
2023-08-19T10:22:11.900Z,33.31
2023-08-19T10:26:25.228Z,33.62
2023-08-19T10:30:38.534Z,33.64
2023-08-19T10:34:52.126Z,33.71
2023-08-19T10:39:09.500Z,34.38
2023-08-19T10:43:22.553Z,33.67
2023-08-19T10:47:43.530Z,34.47
2023-08-19T10:52:06.642Z,34.81
2023-08-19T10:56:22.226Z,34.96
2023-08-19T11:00:37.108Z,33.51
2023-08-19T11:04:52.436Z,34.44
2023-08-19T11:09:06.609Z,34.98
2023-08-19T11:13:19.830Z,35.97
2023-08-19T11:17:34.657Z,35.73
2023-08-19T11:21:48.816Z,35.90
2023-08-19T11:26:02.512Z,36.81
2023-08-19T11:30:16.678Z,36.98
2023-08-19T11:34:34.142Z,35.98
2023-08-19T11:38:48.520Z,36.85
2023-08-19T11:43:09.425Z,37.09
2023-08-19T11:47:22.591Z,37.15
2023-08-19T11:51:39.176Z,35.60
2023-08-19T11:55:58.099Z,36.33
2023-08-19T12:00:17.441Z,37.34
2023-08-19T12:04:30.644Z,36.84
2023-08-19T12:08:46.217Z,36.69
2023-08-19T12:13:02.600Z,36.13
2023-08-19T12:17:16.517Z,36.64
2023-08-19T12:21:29.690Z,37.09
2023-08-19T12:25:57.921Z,36.34
2023-08-19T12:30:11.628Z,36.88
2023-08-19T12:34:24.875Z,36.87
2023-08-19T12:38:37.983Z,35.87
2023-08-19T12:42:56.005Z,37.02
2023-08-19T12:47:09.420Z,38.32
2023-08-19T12:51:22.514Z,36.76
2023-08-19T12:55:37.080Z,36.31
2023-08-19T12:59:51.117Z,36.89
2023-08-19T13:04:04.463Z,36.90
2023-08-19T13:08:17.631Z,37.19
2023-08-19T13:12:32.307Z,36.13
2023-08-19T13:16:45.676Z,37.75
2023-08-19T13:20:59.331Z,37.62
2023-08-19T13:25:12.650Z,36.71
2023-08-19T13:29:26.005Z,37.00
2023-08-19T13:33:39.056Z,36.04
2023-08-19T13:37:52.161Z,37.39
2023-08-19T13:42:06.288Z,37.80
2023-08-19T13:46:19.429Z,35.57
2023-08-19T13:50:32.612Z,36.09
2023-08-19T13:54:45.731Z,37.02
2023-08-19T13:58:59.051Z,36.56
2023-08-19T14:03:12.353Z,36.25
2023-08-19T14:07:25.592Z,35.89
2023-08-19T14:11:38.904Z,37.90
2023-08-19T14:15:52.076Z,37.90
2023-08-19T14:20:08.178Z,38.20
2023-08-19T14:24:21.458Z,37.90
2023-08-19T14:28:38.385Z,37.87
2023-08-19T14:32:51.610Z,37.96
2023-08-19T14:37:05.404Z,37.32
2023-08-19T14:41:19.076Z,37.64
2023-08-19T14:45:32.180Z,36.77
2023-08-19T14:49:45.352Z,38.93
2023-08-19T14:54:02.848Z,38.66
2023-08-19T14:58:15.999Z,38.60
2023-08-19T15:02:48.187Z,37.32
2023-08-19T15:07:04.689Z,38.57
2023-08-19T15:11:18.195Z,38.60
2023-08-19T15:15:31.338Z,37.46
2023-08-19T15:19:44.404Z,37.93
2023-08-19T15:23:57.577Z,37.29
2023-08-19T15:28:12.404Z,37.17
2023-08-19T15:32:26.097Z,36.86
2023-08-19T15:36:39.213Z,36.14
2023-08-19T15:40:52.322Z,35.16
2023-08-19T15:45:07.577Z,35.65
2023-08-19T15:49:20.675Z,35.92
2023-08-19T15:53:33.827Z,35.52
2023-08-19T15:57:46.931Z,35.81
2023-08-19T16:02:00.110Z,35.50
2023-08-19T16:06:13.283Z,34.28
2023-08-19T16:10:26.531Z,33.71
2023-08-19T16:14:39.641Z,33.26
2023-08-19T16:18:53.503Z,32.76
2023-08-19T16:23:06.584Z,33.00
2023-08-19T16:27:19.720Z,33.45
2023-08-19T16:31:32.918Z,33.35
2023-08-19T16:35:49.098Z,32.87
2023-08-19T16:40:02.482Z,32.35
2023-08-19T16:44:15.616Z,31.72
2023-08-19T16:48:29.358Z,31.37
2023-08-19T16:52:42.480Z,30.89
2023-08-19T16:56:55.594Z,30.67
2023-08-19T17:01:08.806Z,30.12
2023-08-19T17:05:22.186Z,29.83
2023-08-19T17:09:34.704Z,29.50
2023-08-19T17:13:48.521Z,29.51
2023-08-19T17:18:01.153Z,29.33
2023-08-19T17:22:14.371Z,29.18
2023-08-19T17:26:27.541Z,28.87
2023-08-19T17:30:40.652Z,28.66
2023-08-19T17:34:55.306Z,28.32
2023-08-19T17:39:09.530Z,28.03
2023-08-19T17:43:22.638Z,27.66
2023-08-19T17:47:35.601Z,27.35
2023-08-19T17:51:50.914Z,26.99
2023-08-19T17:56:04.540Z,26.67
2023-08-19T18:00:17.542Z,26.46
2023-08-19T18:04:30.068Z,26.12
2023-08-19T18:08:42.581Z,25.89
2023-08-19T18:12:55.726Z,25.68
2023-08-19T18:17:08.661Z,25.35
2023-08-19T18:21:21.142Z,25.10
2023-08-19T18:25:33.657Z,24.82
2023-08-19T18:29:46.290Z,24.58
2023-08-19T18:33:58.793Z,24.41
2023-08-19T18:38:11.401Z,24.21
2023-08-19T18:42:24.631Z,24.06
2023-08-19T18:46:37.089Z,24.06
2023-08-19T18:50:49.987Z,23.87
2023-08-19T18:55:02.753Z,23.62
2023-08-19T18:59:16.164Z,23.42
2023-08-19T19:03:32.597Z,23.24
2023-08-19T19:07:45.334Z,23.04
2023-08-19T19:11:58.211Z,22.95
2023-08-19T19:16:10.751Z,22.72
2023-08-19T19:20:25.966Z,22.45
2023-08-19T19:24:38.468Z,22.29
2023-08-19T19:28:51.013Z,22.27
2023-08-19T19:33:03.622Z,22.13
2023-08-19T19:37:16.143Z,22.04
2023-08-19T19:41:28.701Z,21.95
2023-08-19T19:45:42.749Z,21.88
2023-08-19T19:49:56.923Z,21.69
2023-08-19T19:54:09.440Z,21.61
2023-08-19T19:58:22.040Z,21.64
2023-08-19T20:02:35.067Z,21.60
2023-08-19T20:06:47.563Z,21.71
2023-08-19T20:11:00.064Z,21.62
2023-08-19T20:15:13.708Z,21.48
2023-08-19T20:19:27.428Z,21.47
2023-08-19T20:23:39.901Z,21.22
2023-08-19T20:27:52.379Z,21.24
2023-08-19T20:32:06.398Z,20.98
2023-08-19T20:36:18.933Z,21.04
2023-08-19T20:40:31.434Z,21.07
2023-08-19T20:44:43.920Z,21.14
2023-08-19T20:48:56.451Z,20.99
2023-08-19T20:53:08.938Z,20.87
2023-08-19T20:57:21.439Z,20.91
2023-08-19T21:01:34.463Z,20.87
2023-08-19T21:05:47.886Z,20.70
2023-08-19T21:10:01.823Z,20.68
2023-08-19T21:14:14.460Z,20.55
2023-08-19T21:18:27.125Z,20.48
2023-08-19T21:22:39.634Z,20.59
2023-08-19T21:26:52.154Z,20.44
2023-08-19T21:31:04.688Z,20.39
2023-08-19T21:35:17.216Z,20.53
2023-08-19T21:39:29.770Z,20.48
2023-08-19T21:43:42.291Z,20.23
2023-08-19T21:47:54.873Z,20.24
2023-08-19T21:52:07.490Z,20.24
2023-08-19T21:56:20.295Z,20.16
2023-08-19T22:00:33.740Z,20.19
2023-08-19T22:04:46.323Z,20.24
2023-08-19T22:08:59.907Z,20.24
2023-08-19T22:13:14.504Z,20.27
2023-08-19T22:17:27.076Z,20.25
2023-08-19T22:21:39.751Z,20.34
2023-08-19T22:25:52.259Z,20.42
2023-08-19T22:30:06.220Z,20.41
2023-08-19T22:34:18.724Z,20.43
2023-08-19T22:38:31.239Z,20.45
2023-08-19T22:42:43.777Z,20.43
2023-08-19T22:46:59.456Z,20.49
2023-08-19T22:51:11.988Z,20.54
2023-08-19T22:55:24.497Z,20.54
2023-08-19T22:59:38.386Z,20.50
2023-08-19T23:03:50.923Z,20.56
2023-08-19T23:08:03.665Z,20.50
2023-08-19T23:12:16.680Z,20.48
2023-08-19T23:16:29.247Z,20.43
2023-08-19T23:20:42.330Z,20.37
2023-08-19T23:24:54.871Z,20.37
2023-08-19T23:29:07.387Z,20.26
2023-08-19T23:33:19.893Z,20.24
2023-08-19T23:37:32.817Z,20.08
2023-08-19T23:41:46.185Z,19.99
2023-08-19T23:45:58.711Z,19.94
2023-08-19T23:50:12.189Z,19.83
2023-08-19T23:54:26.032Z,19.73
2023-08-19T23:58:39.684Z,19.65
